Time;durP1;ratioP1;P1;durP2;ratioP2;P2;SDS_P1;SDS_P2;PMS_P1;PMS_P2;Temp;Humidity;BMP_temperature;BMP_pressure;BME280_temperature;BME280_humidity;BME280_pressure;Samples;Min_cycle;Max_cycle;Signal;HPM_P1;HPM_P2
2022/09/27 00:00:14;;;;;;;31.55;2.20;;;;;;;11.29;74.72;99643.44;5010667;28;20543;-34
2022/09/27 00:02:40;;;;;;;26.92;2.28;;;;;;;11.33;74.39;99649.25;4994466;28;20448;-35
2022/09/27 00:05:06;;;;;;;20.55;1.98;;;;;;;11.29;75.88;99648.00;5011684;28;20033;-34
2022/09/27 00:07:31;;;;;;;32.17;2.08;;;;;;;11.26;75.69;99643.88;5011610;28;20046;-34
2022/09/27 00:09:57;;;;;;;26.65;2.45;;;;;;;11.24;76.97;99645.13;4993748;28;20033;-37
2022/09/27 00:12:23;;;;;;;30.48;2.47;;;;;;;11.23;76.47;99648.88;5011248;28;20034;-33
2022/09/27 00:14:50;;;;;;;29.52;2.63;;;;;;;11.26;76.96;99648.44;4994170;28;20057;-35
2022/09/27 00:17:15;;;;;;;20.70;2.13;;;;;;;11.25;77.40;99647.63;5011311;28;20037;-34
2022/09/27 00:19:41;;;;;;;29.05;1.92;;;;;;;11.30;77.53;99644.28;5010744;28;20026;-35
2022/09/27 00:22:06;;;;;;;27.00;2.35;;;;;;;11.36;77.19;99643.41;5011053;28;20056;-35
2022/09/27 00:24:31;;;;;;;25.05;3.20;;;;;;;11.40;77.42;99658.09;5011208;28;20052;-35
2022/09/27 00:26:57;;;;;;;27.58;2.35;;;;;;;11.45;75.84;99652.06;4993901;28;20036;-35
2022/09/27 00:29:22;;;;;;;24.98;2.45;;;;;;;11.44;76.40;99651.25;4993231;28;20107;-35
2022/09/27 00:31:48;;;;;;;11.10;1.88;;;;;;;11.49;73.95;99658.69;5011209;28;20029;-34
2022/09/27 00:34:19;;;;;;;35.17;2.15;;;;;;;11.51;73.34;99651.22;5011162;28;20044;-35
2022/09/27 00:36:44;;;;;;;29.83;2.13;;;;;;;11.54;73.33;99651.59;5011093;28;20119;-35
2022/09/27 00:39:10;;;;;;;20.70;3.03;;;;;;;11.61;73.63;99662.31;5011015;28;20072;-34
2022/09/27 00:41:36;;;;;;;18.33;1.75;;;;;;;11.61;74.62;99660.47;5010600;28;20397;-35
2022/09/27 00:44:28;;;;;;;18.17;1.90;;;;;;;11.61;75.97;99660.47;5011123;28;20137;-36
2022/09/27 00:47:13;;;;;;;26.55;2.08;;;;;;;11.60;76.49;99658.78;4998007;28;20025;-36
2022/09/27 00:49:58;;;;;;;25.02;2.25;;;;;;;11.59;76.95;99657.16;5009973;28;20489;-34
2022/09/27 00:52:36;;;;;;;26.63;2.25;;;;;;;11.61;76.94;99663.16;5009406;28;20112;-35
2022/09/27 00:55:15;;;;;;;20.95;1.45;;;;;;;11.65;76.02;99655.47;4993029;28;20037;-35
2022/09/27 00:57:41;;;;;;;23.35;2.28;;;;;;;11.64;77.26;99661.91;4980090;28;20042;-34
2022/09/27 01:00:09;;;;;;;31.00;3.15;;;;;;;11.65;76.48;99672.44;5009909;28;20030;-35
2022/09/27 01:02:37;;;;;;;20.80;1.85;;;;;;;11.64;77.09;99665.41;5010383;28;20022;-34
2022/09/27 01:05:04;;;;;;;22.38;1.70;;;;;;;11.62;77.11;99656.72;4987597;28;20485;-35
2022/09/27 01:07:30;;;;;;;23.40;2.92;;;;;;;11.62;75.43;99661.28;4992613;28;20050;-34
2022/09/27 01:09:55;;;;;;;24.50;2.15;;;;;;;11.68;75.17;99673.06;5009990;28;20037;-36
2022/09/27 01:12:48;;;;;;;25.25;1.70;;;;;;;11.74;73.09;99677.56;5010551;28;20105;-33
2022/09/27 01:15:26;;;;;;;15.35;1.88;;;;;;;11.70;73.64;99671.81;5010736;28;20052;-35
2022/09/27 01:17:57;;;;;;;15.25;1.80;;;;;;;11.68;74.00;99668.50;5012485;28;20034;-34
2022/09/27 01:20:47;;;;;;;22.98;1.55;;;;;;;11.65;74.56;99675.16;5010299;28;20626;-34
2022/09/27 01:23:15;;;;;;;24.27;2.25;;;;;;;11.70;75.26;99681.75;5010228;28;20251;-34
2022/09/27 01:25:59;;;;;;;;;;;;;;;11.68;76.42;99683.84;5010708;28;20117;-35
2022/09/27 01:28:36;;;;;;;26.02;1.80;;;;;;;11.68;76.24;99678.44;5010335;28;19925;-34
2022/09/27 01:31:22;;;;;;;23.23;1.92;;;;;;;11.60;76.90;99674.16;5009559;28;20527;-34
2022/09/27 01:34:01;;;;;;;24.40;2.33;;;;;;;11.50;78.47;99671.09;5010593;28;20037;-33
2022/09/27 01:36:34;;;;;;;21.63;2.22;;;;;;;11.47;78.07;99671.53;5010310;28;20129;-33
2022/09/27 01:39:21;;;;;;;28.40;2.92;;;;;;;11.40;77.18;99664.31;5010515;28;20125;-33
2022/09/27 01:42:03;;;;;;;23.08;1.58;;;;;;;11.48;76.25;99668.63;5005360;28;20044;-35
2022/09/27 01:44:46;;;;;;;19.38;1.50;;;;;;;11.47;76.88;99664.28;4992812;28;20090;-33
2022/09/27 01:47:15;;;;;;;23.42;1.75;;;;;;;11.40;78.01;99668.88;5010037;28;20420;-34
2022/09/27 01:49:59;;;;;;;15.00;1.40;;;;;;;11.40;77.60;99666.16;4976326;28;20030;-35
2022/09/27 01:52:31;;;;;;;21.65;1.98;;;;;;;11.42;76.64;99669.47;5009552;28;20030;-34
2022/09/27 01:54:59;;;;;;;26.88;1.67;;;;;;;11.35;76.66;99661.47;4992026;28;20046;-34
2022/09/27 01:57:25;;;;;;;;;;;;;;;11.33;75.54;99660.84;4992825;28;20033;-34
2022/09/27 02:00:08;;;;;;;21.17;2.53;;;;;;;11.33;74.78;99665.41;4992404;28;19921;-34
2022/09/27 02:02:45;;;;;;;24.30;1.60;;;;;;;11.31;74.28;99662.91;4998146;28;20330;-34
2022/09/27 02:05:13;;;;;;;21.75;1.52;;;;;;;11.37;74.16;99667.47;4992350;28;20092;-35
2022/09/27 02:07:50;;;;;;;12.40;1.75;;;;;;;11.41;74.55;99673.22;5058017;23;20065;-76
2022/09/27 02:10:22;;;;;;;15.27;1.65;;;;;;;11.40;76.35;99663.47;4978427;28;20329;-74
2022/09/27 02:12:56;;;;;;;16.48;1.77;;;;;;;11.31;80.00;99679.06;4995484;28;20049;-73
2022/09/27 02:15:23;;;;;;;17.35;1.63;;;;;;;11.14;82.09;99676.06;4995137;28;20271;-74
2022/09/27 02:17:56;;;;;;;19.50;1.45;;;;;;;10.98;83.58;99690.00;4994460;28;20032;-75
2022/09/27 02:20:30;;;;;;;13.65;1.67;;;;;;;10.91;85.02;99683.81;4978967;28;20030;-75
2022/09/27 02:23:20;;;;;;;17.17;1.98;;;;;;;10.79;87.76;99672.03;5019338;28;20316;-74
2022/09/27 02:25:52;;;;;;;29.73;2.70;;;;;;;10.66;87.71;99681.81;4988569;28;20037;-75
2022/09/27 02:28:20;;;;;;;15.02;1.25;;;;;;;10.60;87.39;99671.88;4976560;28;20029;-75
2022/09/27 02:30:46;;;;;;;19.77;1.55;;;;;;;10.54;87.21;99664.69;4992564;28;20497;-74
2022/09/27 02:33:11;;;;;;;17.90;1.02;;;;;;;10.48;87.10;99657.44;4992849;28;20104;-75
2022/09/27 02:35:36;;;;;;;25.00;1.90;;;;;;;10.50;85.37;99661.56;4977358;28;20485;-74
2022/09/27 02:38:03;;;;;;;21.73;1.60;;;;;;;10.48;86.67;99660.16;5013179;28;20162;-76
2022/09/27 02:40:34;;;;;;;16.70;1.52;;;;;;;10.45;87.12;99656.00;4977875;28;20021;-75
2022/09/27 02:43:03;;;;;;;15.95;1.10;;;;;;;10.48;86.76;99660.97;4995124;28;20481;-75
2022/09/27 02:45:35;;;;;;;22.35;1.30;;;;;;;10.50;86.62;99664.25;4998841;28;20033;-75
2022/09/27 02:48:26;;;;;;;14.10;1.45;;;;;;;10.53;85.63;99668.38;4998349;28;20052;-74
2022/09/27 02:51:12;;;;;;;27.63;1.60;;;;;;;10.57;84.90;99668.81;5004496;28;20402;-75
2022/09/27 02:53:50;;;;;;;22.83;1.65;;;;;;;10.57;83.18;99661.56;4997995;28;20105;-74
2022/09/27 02:56:19;;;;;;;;;;;;;;;10.65;80.82;99650.56;4997515;28;20022;-73
2022/09/27 02:59:09;;;;;;;12.68;1.05;;;;;;;10.71;79.94;99652.41;4996609;28;20023;-75
2022/09/27 03:02:02;;;;;;;7.40;0.75;;;;;;;10.66;80.34;99654.91;4996691;28;20113;-76
2022/09/27 03:04:34;;;;;;;6.78;0.60;;;;;;;10.62;80.67;99651.00;5014700;28;20041;-75
2022/09/27 03:07:00;;;;;;;22.60;3.13;;;;;;;10.58;81.14;99652.44;4985499;28;20062;-75
2022/09/27 03:09:40;;;;;;;18.15;1.40;;;;;;;10.59;80.69;99647.91;4993424;28;20137;-74
2022/09/27 03:12:06;;;;;;;19.30;1.33;;;;;;;10.65;80.62;99650.56;4996661;28;20031;-74
2022/09/27 03:14:31;;;;;;;15.43;1.88;;;;;;;10.72;80.84;99648.69;5000258;28;20045;-74
2022/09/27 03:16:56;;;;;;;35.17;2.08;;;;;;;10.80;80.63;99657.56;4999703;28;20034;-74
2022/09/27 03:19:23;;;;;;;18.35;1.25;;;;;;;10.85;81.45;99674.72;4977544;28;20475;-75
2022/09/27 03:21:48;;;;;;;17.55;1.50;;;;;;;10.88;85.44;99679.69;4995688;28;20124;-75
2022/09/27 03:24:13;;;;;;;12.20;1.67;;;;;;;10.77;87.14;99654.25;4998987;28;20058;-79
2022/09/27 03:26:39;;;;;;;14.43;1.17;;;;;;;10.59;87.71;99662.19;5010527;28;20026;-77
2022/09/27 03:29:04;;;;;;;10.00;1.05;;;;;;;10.36;87.75;99680.63;4993203;28;20034;-76
2022/09/27 03:31:29;;;;;;;10.55;1.10;;;;;;;10.22;89.57;99710.19;5007115;28;20098;-79
2022/09/27 03:33:55;;;;;;;17.75;1.50;;;;;;;10.08;91.61;99684.34;4996158;28;20038;-78
2022/09/27 03:36:20;;;;;;;27.73;2.13;;;;;;;9.96;94.95;99680.63;5000979;28;20022;-82
2022/09/27 03:38:46;;;;;;;24.27;2.38;;;;;;;9.82;97.32;99675.25;5015061;28;20023;-80
2022/09/27 03:41:11;;;;;;;34.72;2.15;;;;;;;9.70;99.74;99666.13;4991315;28;20015;-75
2022/09/27 03:43:36;;;;;;;31.35;1.95;;;;;;;9.66;100.00;99673.78;5004198;28;20022;-77
2022/09/27 03:46:02;;;;;;;27.17;1.83;;;;;;;9.64;100.00;99686.59;4988585;28;20498;-76
2022/09/27 03:48:29;;;;;;;21.55;1.83;;;;;;;9.61;100.00;99686.16;4998329;28;20037;-77
2022/09/27 03:50:55;;;;;;;18.58;1.95;;;;;;;9.59;100.00;99680.19;4998812;28;20110;-78
2022/09/27 03:53:20;;;;;;;26.67;1.90;;;;;;;9.57;100.00;99677.69;4999120;28;20502;-76
2022/09/27 03:55:46;;;;;;;40.58;3.65;;;;;;;9.56;100.00;99669.84;4993079;28;20340;-75
2022/09/27 03:58:12;;;;;;;17.65;2.50;;;;;;;9.58;100.00;99662.38;4993343;28;20117;-78
2022/09/27 04:00:37;;;;;;;36.00;2.03;;;;;;;9.59;100.00;99675.63;4992470;28;20105;-78
2022/09/27 04:03:04;;;;;;;23.10;1.80;;;;;;;9.63;100.00;99670.66;4992380;28;20030;-77
2022/09/27 04:05:29;;;;;;;27.02;1.80;;;;;;;9.64;100.00;99667.78;4991514;28;20039;-77
2022/09/27 04:07:55;;;;;;;20.33;2.10;;;;;;;9.67;100.00;99666.56;4985297;28;20117;-77
2022/09/27 04:10:20;;;;;;;23.48;1.20;;;;;;;9.74;100.00;99666.53;4996921;28;20034;-76
2022/09/27 04:12:46;;;;;;;26.48;2.42;;;;;;;9.74;100.00;99659.34;4975094;28;20034;-76
2022/09/27 04:15:11;;;;;;;21.25;1.92;;;;;;;9.81;100.00;99662.81;4991171;28;20418;-76
2022/09/27 04:17:39;;;;;;;20.40;1.58;;;;;;;9.86;98.70;99656.84;5000302;28;20394;-77
2022/09/27 04:20:05;;;;;;;;;;;;;;;9.92;96.78;99664.06;4991890;28;20026;-77
2022/09/27 04:22:31;;;;;;;12.77;1.27;;;;;;;9.96;96.13;99662.63;4990660;28;19979;-78
2022/09/27 04:24:56;;;;;;;17.05;1.55;;;;;;;9.99;96.01;99658.72;4978218;28;20482;-77
2022/09/27 04:27:21;;;;;;;17.65;1.23;;;;;;;10.00;95.87;99654.97;4992465;28;20226;-75
2022/09/27 04:29:47;;;;;;;20.23;2.17;;;;;;;9.97;96.08;99660.78;4991915;28;20407;-75
2022/09/27 04:32:13;;;;;;;21.30;1.52;;;;;;;9.99;95.61;99664.09;4992775;28;20034;-77
2022/09/27 04:37:23;;;;;;;11.10;1.13;;;;;;;10.02;93.31;99660.97;4996389;28;20057;-76
2022/09/27 04:39:48;;;;;;;22.17;2.35;;;;;;;10.00;93.48;99663.84;4982275;28;20344;-77
2022/09/27 04:42:14;;;;;;;15.02;1.00;;;;;;;10.06;92.69;99659.53;4978578;28;20042;-76
2022/09/27 04:44:40;;;;;;;21.40;1.33;;;;;;;10.18;91.64;99671.31;4993722;28;20031;-76
2022/09/27 04:47:05;;;;;;;12.40;1.40;;;;;;;10.25;90.94;99674.81;4991817;28;20037;-76
2022/09/27 04:49:31;;;;;;;16.77;1.25;;;;;;;10.16;91.32;99673.38;4992418;28;20562;-78
2022/09/27 04:51:56;;;;;;;12.20;0.77;;;;;;;10.02;90.79;99669.03;4978393;28;20074;-77
2022/09/27 04:54:22;;;;;;;10.55;1.27;;;;;;;9.94;89.72;99658.50;5004032;28;20040;-75
2022/09/27 04:56:47;;;;;;;12.40;1.30;;;;;;;9.85;90.49;99663.25;5004100;28;20057;-77
2022/09/27 04:59:13;;;;;;;12.80;1.27;;;;;;;9.75;91.09;99669.03;4981332;28;20144;-78
2022/09/27 05:01:39;;;;;;;19.55;1.40;;;;;;;9.75;91.60;99663.66;4991425;28;20453;-77
2022/09/27 05:04:04;;;;;;;20.00;2.40;;;;;;;9.74;92.63;99662.03;4974215;28;20084;-77
2022/09/27 05:06:29;;;;;;;16.65;1.52;;;;;;;9.73;93.16;99664.91;4973377;28;20380;-76
2022/09/27 05:08:55;;;;;;;19.40;2.88;;;;;;;9.74;93.34;99671.91;4976483;28;20155;-77
2022/09/27 05:11:21;;;;;;;17.00;2.20;;;;;;;9.78;93.85;99682.06;4987369;28;20062;-76
2022/09/27 05:13:46;;;;;;;27.27;4.45;;;;;;;9.86;92.53;99673.78;4993787;28;20096;-76
2022/09/27 05:16:12;;;;;;;19.77;1.98;;;;;;;10.00;92.67;99676.47;4988638;28;20069;-76
2022/09/27 05:18:37;;;;;;;33.10;1.67;;;;;;;10.06;94.27;99681.88;4990867;28;20085;-76
2022/09/27 05:21:03;;;;;;;26.27;2.38;;;;;;;10.08;95.43;99679.81;4991965;28;20057;-77
2022/09/27 05:23:28;;;;;;;20.95;2.15;;;;;;;10.03;96.68;99670.69;4992830;28;20038;-76
2022/09/27 05:25:55;;;;;;;30.10;1.67;;;;;;;10.02;97.06;99679.78;4992227;28;20418;-76
2022/09/27 05:28:21;;;;;;;24.73;1.35;;;;;;;9.95;97.02;99677.09;4990967;28;20121;-76
2022/09/27 05:30:46;;;;;;;22.77;1.83;;;;;;;9.85;97.47;99674.84;4987047;28;20045;-77
2022/09/27 05:33:11;;;;;;;12.70;1.40;;;;;;;9.77;97.98;99669.66;4996462;28;20481;-77
2022/09/27 05:35:41;;;;;;;12.18;1.48;;;;;;;9.78;98.29;99667.81;4988510;28;20039;-77
2022/09/27 05:38:06;;;;;;;21.17;1.60;;;;;;;9.73;98.60;99671.09;4982746;28;20073;-77
2022/09/27 05:40:31;;;;;;;17.02;1.42;;;;;;;9.71;98.41;99673.16;4982093;28;20050;-77
2022/09/27 05:42:57;;;;;;;21.27;1.90;;;;;;;9.73;98.35;99670.28;4993280;28;20150;-78
2022/09/27 05:45:23;;;;;;;17.88;2.38;;;;;;;9.72;97.85;99671.31;4991654;28;20061;-77
2022/09/27 05:47:52;;;;;;;31.27;1.60;;;;;;;9.72;97.16;99680.19;4991621;28;20343;-75
2022/09/27 05:50:18;;;;;;;15.20;2.05;;;;;;;9.70;96.17;99679.56;4974959;28;20041;-77
2022/09/27 05:52:43;;;;;;;10.77;1.20;;;;;;;9.77;95.57;99671.50;4976746;28;20030;-77
2022/09/27 05:55:09;;;;;;;32.88;1.98;;;;;;;9.75;94.28;99663.66;4981231;28;20057;-76
2022/09/27 05:57:34;;;;;;;14.48;1.33;;;;;;;9.79;92.91;99672.94;4996892;28;20034;-77
2022/09/27 06:00:00;;;;;;;12.63;1.15;;;;;;;9.82;92.28;99680.63;4994714;28;20034;-77
2022/09/27 06:02:25;;;;;;;15.63;1.00;;;;;;;9.85;91.31;99676.69;4992848;28;20022;-77
2022/09/27 06:04:51;;;;;;;3.58;0.90;;;;;;;9.94;90.57;99669.25;4993881;28;20034;-78
2022/09/27 06:07:16;;;;;;;8.13;0.93;;;;;;;9.97;89.42;99672.34;4993436;28;20046;-76
2022/09/27 06:09:43;;;;;;;12.75;1.38;;;;;;;10.02;88.45;99674.41;4991914;28;20490;-76
2022/09/27 06:12:10;;;;;;;6.63;1.13;;;;;;;10.09;87.04;99675.25;4991000;28;20090;-77
2022/09/27 06:14:36;;;;;;;10.00;1.30;;;;;;;10.17;86.66;99676.91;4974780;28;20080;-76
2022/09/27 06:17:03;;;;;;;22.17;1.80;;;;;;;10.26;86.53;99681.84;4991612;28;20125;-75
2022/09/27 06:19:28;;;;;;;16.75;2.08;;;;;;;10.30;87.20;99683.13;4994919;28;20328;-76
2022/09/27 06:21:53;;;;;;;21.83;2.20;;;;;;;10.30;88.42;99680.44;4978382;28;20120;-76
2022/09/27 06:24:19;;;;;;;16.50;2.40;;;;;;;10.33;88.50;99685.41;4977458;28;20053;-75
2022/09/27 06:26:45;;;;;;;14.88;1.65;;;;;;;10.36;87.74;99676.06;4995002;28;20086;-76
2022/09/27 06:29:10;;;;;;;14.35;1.80;;;;;;;10.43;87.04;99676.09;4994973;28;20042;-76
2022/09/27 06:31:35;;;;;;;17.67;2.20;;;;;;;10.51;86.57;99678.56;4996820;28;20505;-77
2022/09/27 06:34:01;;;;;;;16.38;1.33;;;;;;;10.61;86.66;99678.94;4995925;28;20030;-75
2022/09/27 06:36:26;;;;;;;14.73;1.52;;;;;;;10.67;86.22;99674.59;4977830;28;20439;-75
2022/09/27 06:38:53;;;;;;;22.38;1.77;;;;;;;10.68;86.69;99670.84;4995464;28;20022;-75
2022/09/27 06:41:18;;;;;;;14.77;2.00;;;;;;;10.67;87.69;99683.47;4976509;28;20027;-76
2022/09/27 06:43:44;;;;;;;44.22;2.67;;;;;;;10.62;89.83;99677.91;4977385;28;20092;-76
2022/09/27 06:46:10;;;;;;;25.05;2.95;;;;;;;10.58;89.68;99695.47;4999999;28;20046;-75
2022/09/27 06:48:37;;;;;;;19.33;2.22;;;;;;;10.55;88.99;99696.72;4981923;28;20053;-77
2022/09/27 06:51:03;;;;;;;20.97;2.23;;;;;;;10.58;88.08;99706.25;4996110;28;20038;-74
2022/09/27 06:53:29;;;;;;;15.27;1.60;;;;;;;10.64;87.86;99712.69;4996714;28;20064;-75
2022/09/27 06:55:59;;;;;;;22.52;2.13;;;;;;;10.64;88.37;99710.81;4973652;28;20070;-76
2022/09/27 07:01:10;;;;;;;18.50;1.63;;;;;;;10.62;89.82;99723.63;4994124;28;20104;-76
2022/09/27 07:03:40;;;;;;;22.75;1.85;;;;;;;10.56;90.25;99724.47;4995698;28;20109;-75
2022/09/27 07:06:07;;;;;;;25.35;1.83;;;;;;;10.54;90.59;99731.94;4995030;28;20538;-75
2022/09/27 07:08:32;;;;;;;22.80;1.60;;;;;;;10.43;90.24;99730.69;4994145;28;20023;-76
2022/09/27 07:11:06;;;;;;;17.50;2.40;;;;;;;10.26;90.18;99732.13;4995888;28;20371;-74
2022/09/27 07:13:33;;;;;;;11.52;1.52;;;;;;;10.09;90.47;99739.78;4996685;28;20080;-75
2022/09/27 07:15:59;;;;;;;18.05;1.08;;;;;;;9.89;91.28;99729.81;5010643;28;20034;-78
2022/09/27 07:18:25;;;;;;;20.50;1.30;;;;;;;9.80;92.97;99725.69;4985598;28;20070;-78
2022/09/27 07:20:50;;;;;;;14.63;2.83;;;;;;;9.70;93.09;99717.19;5015880;28;20018;-75
2022/09/27 07:23:16;;;;;;;18.20;2.33;;;;;;;9.65;93.33;99722.34;5006299;28;20030;-75
2022/09/27 07:25:41;;;;;;;26.27;2.10;;;;;;;9.65;92.90;99714.28;5005019;28;20041;-77
2022/09/27 07:28:11;;;;;;;17.58;2.13;;;;;;;9.64;93.03;99709.94;5007060;28;20510;-76
2022/09/27 07:30:36;;;;;;;23.20;1.73;;;;;;;9.69;94.24;99707.47;4987551;28;20042;-76
2022/09/27 07:33:03;;;;;;;12.23;1.27;;;;;;;9.80;95.16;99716.78;5003399;28;20026;-78
2022/09/27 07:35:29;;;;;;;15.05;1.50;;;;;;;9.83;95.79;99725.25;4986073;28;20542;-76
2022/09/27 07:37:55;;;;;;;6.20;0.98;;;;;;;9.85;96.54;99730.44;4980463;28;20116;-77
2022/09/27 07:40:21;;;;;;;16.08;1.65;;;;;;;9.89;96.62;99737.06;5002160;28;20494;-76
2022/09/27 07:42:46;;;;;;;9.27;1.40;;;;;;;9.91;95.78;99726.13;4998741;28;20030;-77
2022/09/27 07:45:12;;;;;;;13.10;1.60;;;;;;;9.88;95.61;99728.16;5007534;28;20010;-79
2022/09/27 07:47:39;;;;;;;11.88;1.33;;;;;;;9.86;95.45;99738.28;5018404;28;20065;-78
2022/09/27 07:50:05;;;;;;;12.98;1.90;;;;;;;9.85;95.78;99738.50;5014632;28;20045;-77
2022/09/27 07:52:38;;;;;;;15.57;1.40;;;;;;;9.88;95.55;99746.16;5006835;28;20018;-77
2022/09/27 07:55:03;;;;;;;11.13;1.08;;;;;;;9.89;95.90;99745.13;5008442;28;20030;-78
2022/09/27 07:57:29;;;;;;;12.43;2.05;;;;;;;9.90;95.75;99738.72;5005868;28;20479;-76
2022/09/27 07:59:54;;;;;;;24.05;3.20;;;;;;;10.00;95.95;99741.00;5003114;28;20035;-77
2022/09/27 08:02:20;;;;;;;6.88;1.15;;;;;;;10.02;95.70;99736.25;5001391;28;20406;-76
2022/09/27 08:04:46;;;;;;;20.95;1.60;;;;;;;10.04;95.32;99736.88;4996685;28;20094;-74
2022/09/27 08:07:11;;;;;;;14.77;2.13;;;;;;;10.09;96.05;99745.16;4988662;28;20445;-76
2022/09/27 08:09:37;;;;;;;24.52;1.73;;;;;;;10.19;95.78;99752.78;5001190;28;20030;-76
2022/09/27 08:12:03;;;;;;;8.68;1.65;;;;;;;10.26;95.15;99749.06;4999842;28;20026;-74
2022/09/27 08:14:28;;;;;;;14.38;1.80;;;;;;;10.31;95.40;99751.19;5002657;28;20057;-76
2022/09/27 08:16:54;;;;;;;17.90;1.58;;;;;;;10.31;96.50;99762.75;4998511;28;20030;-77
2022/09/27 08:19:19;;;;;;;19.40;2.35;;;;;;;10.35;96.45;99767.72;4999602;28;20034;-76
2022/09/27 08:21:46;;;;;;;15.05;1.42;;;;;;;10.27;94.57;99761.53;4980946;28;20105;-75
2022/09/27 08:24:12;;;;;;;13.15;1.17;;;;;;;10.35;92.60;99770.41;4999083;28;20053;-75
2022/09/27 08:26:37;;;;;;;7.45;0.88;;;;;;;10.33;89.40;99778.69;4998326;28;20033;-75
2022/09/27 08:29:03;;;;;;;18.65;1.40;;;;;;;10.31;87.50;99776.19;4978745;28;20121;-76
2022/09/27 08:31:28;;;;;;;12.63;1.50;;;;;;;10.32;88.95;99775.19;5002400;28;20128;-76
2022/09/27 08:33:53;;;;;;;21.80;3.85;;;;;;;10.22;89.37;99772.03;5011986;28;20026;-78
2022/09/27 08:36:19;;;;;;;22.00;1.58;;;;;;;10.22;89.44;99781.97;5014044;28;20078;-77
2022/09/27 08:38:49;;;;;;;14.10;2.17;;;;;;;10.20;88.61;99778.66;5009921;28;20141;-75
2022/09/27 08:41:38;;;;;;;9.95;0.93;;;;;;;10.22;88.84;99772.03;4991878;28;20023;-76
2022/09/27 08:44:31;;;;;;;11.55;1.38;;;;;;;10.25;89.24;99771.63;5000340;28;20027;-78
2022/09/27 08:46:59;;;;;;;30.48;1.45;;;;;;;10.26;89.76;99773.28;4990229;28;20097;-77
2022/09/27 08:49:34;;;;;;;12.38;1.63;;;;;;;10.26;90.87;99773.28;5011240;28;20234;-77
2022/09/27 08:52:00;;;;;;;16.88;1.50;;;;;;;10.33;91.77;99768.75;5008005;28;20112;-76
2022/09/27 08:54:29;;;;;;;28.75;2.22;;;;;;;10.43;93.08;99767.53;4997560;28;20490;-76
2022/09/27 08:57:03;;;;;;;11.82;1.40;;;;;;;10.50;93.57;99768.34;4996749;28;20068;-76
2022/09/27 08:59:33;;;;;;;17.80;1.50;;;;;;;10.60;94.78;99770.63;4996381;28;20026;-75
2022/09/27 09:01:58;;;;;;;26.23;2.05;;;;;;;10.73;95.92;99767.91;4996510;28;20375;-76
2022/09/27 09:04:33;;;;;;;20.48;1.88;;;;;;;10.83;96.88;99756.72;4997307;28;20073;-75
2022/09/27 09:07:22;;;;;;;28.55;2.45;;;;;;;10.95;97.28;99773.88;4997831;28;20061;-75
2022/09/27 09:10:03;;;;;;;19.55;1.48;;;;;;;11.07;94.48;99769.50;4997407;28;20066;-75
2022/09/27 09:12:52;;;;;;;11.80;1.30;;;;;;;11.12;93.32;99777.78;4999266;28;20048;-75
2022/09/27 09:15:25;;;;;;;18.15;1.85;;;;;;;11.07;93.79;99785.66;4999522;28;20180;-75
2022/09/27 09:18:09;;;;;;;21.42;1.85;;;;;;;11.13;93.77;99781.28;4999159;28;20034;-75
2022/09/27 09:20:54;;;;;;;25.83;1.98;;;;;;;11.14;93.64;99788.34;5003221;28;20061;-78
2022/09/27 09:23:51;;;;;;;18.65;1.73;;;;;;;11.10;92.13;99801.38;5001482;28;20125;-77
2022/09/27 09:26:17;;;;;;;;;;;;;;;10.91;91.26;99795.00;4960577;28;20417;-79
2022/09/27 09:28:54;;;;;;;31.30;1.92;;;;;;;10.67;92.66;99801.06;5003554;28;20012;-78
2022/09/27 09:31:54;;;;;;;17.63;1.63;;;;;;;10.43;94.21;99794.44;4995734;28;20050;-77
2022/09/27 09:34:24;;;;;;;13.68;1.52;;;;;;;10.24;95.52;99796.03;5014448;28;20045;-78
2022/09/27 09:36:55;;;;;;;18.75;1.67;;;;;;;10.07;96.47;99801.81;4994017;28;20054;-78
2022/09/27 09:39:27;;;;;;;19.10;1.70;;;;;;;9.91;96.76;99804.88;4989208;28;20022;-76
2022/09/27 09:42:11;;;;;;;21.88;2.17;;;;;;;9.78;97.28;99805.66;4998570;28;20030;-77
2022/09/27 09:44:37;;;;;;;27.73;1.92;;;;;;;9.65;98.99;99816.38;4996790;28;20086;-78
2022/09/27 09:47:02;;;;;;;26.50;1.92;;;;;;;9.55;100.00;99810.53;4996407;28;20085;-78
2022/09/27 09:49:36;;;;;;;16.85;1.67;;;;;;;9.31;100.00;99807.31;4994704;28;20026;-76
2022/09/27 09:52:05;;;;;;;10.35;1.10;;;;;;;9.19;100.00;99820.50;4977179;28;20030;-76
2022/09/27 09:54:52;;;;;;;24.00;2.65;;;;;;;9.12;100.00;99824.16;4989996;28;20022;-76
2022/09/27 09:57:37;;;;;;;14.85;1.75;;;;;;;9.11;100.00;99809.91;4998898;28;20061;-76
2022/09/27 10:00:16;;;;;;;14.48;2.85;;;;;;;9.10;100.00;99812.78;4979291;28;20273;-77
2022/09/27 10:02:44;;;;;;;15.60;2.17;;;;;;;8.96;100.00;99799.28;4998416;28;20422;-77
2022/09/27 10:05:18;;;;;;;18.35;2.25;;;;;;;8.91;100.00;99817.00;4996685;28;20470;-78
2022/09/27 10:07:44;;;;;;;42.33;5.35;;;;;;;8.80;100.00;99804.97;4993694;28;20054;-78
2022/09/27 10:10:14;;;;;;;32.22;4.18;;;;;;;8.69;100.00;99805.50;4995667;28;20383;-77
2022/09/27 10:12:40;;;;;;;17.23;2.83;;;;;;;8.63;100.00;99798.22;4981515;28;20034;-77
2022/09/27 10:15:06;;;;;;;16.85;2.55;;;;;;;8.52;100.00;99802.28;4980577;28;20181;-78
2022/09/27 10:17:37;;;;;;;15.27;2.13;;;;;;;8.63;100.00;99787.50;5008594;28;20015;-77
2022/09/27 10:20:05;;;;;;;23.33;2.80;;;;;;;8.63;100.00;99776.78;4990402;28;20101;-77
2022/09/27 10:22:40;;;;;;;18.58;2.50;;;;;;;8.71;100.00;99771.25;4982694;28;20781;-78
2022/09/27 10:25:08;;;;;;;16.38;2.22;;;;;;;8.77;100.00;99783.91;4978466;28;20113;-78
2022/09/27 10:27:48;;;;;;;16.37;2.10;;;;;;;8.77;100.00;99791.97;4996992;28;20149;-77
2022/09/27 10:30:31;;;;;;;19.65;2.10;;;;;;;8.65;100.00;99785.47;4995753;28;20042;-77
2022/09/27 10:33:14;;;;;;;12.75;1.90;;;;;;;8.61;100.00;99789.53;4980971;28;20086;-76
2022/09/27 10:35:44;;;;;;;16.33;1.95;;;;;;;8.63;100.00;99787.50;4989805;28;20098;-77
2022/09/27 10:38:22;;;;;;;20.02;2.35;;;;;;;8.67;100.00;99789.59;5004209;28;20018;-77
2022/09/27 10:40:48;;;;;;;18.85;3.30;;;;;;;8.68;100.00;99785.88;5001670;28;20026;-77
2022/09/27 10:43:23;;;;;;;21.73;2.78;;;;;;;8.76;100.00;99788.41;4998465;28;20041;-76
2022/09/27 10:45:49;;;;;;;22.00;3.85;;;;;;;8.84;100.00;99789.31;4999682;28;20034;-76
2022/09/27 10:48:19;;;;;;;16.20;2.28;;;;;;;8.88;100.00;99775.31;5002314;28;20034;-75
2022/09/27 10:50:58;;;;;;;16.63;3.17;;;;;;;8.92;100.00;99776.56;4997888;28;20027;-78
2022/09/27 10:53:23;;;;;;;18.42;2.33;;;;;;;8.91;100.00;99780.28;4997247;28;20038;-76
2022/09/27 10:55:50;;;;;;;20.73;2.17;;;;;;;9.07;100.00;99780.97;5000422;28;20063;-77
2022/09/27 10:58:44;;;;;;;15.02;2.20;;;;;;;9.18;100.00;99780.41;5001050;28;20026;-76
2022/09/27 11:01:11;;;;;;;11.55;1.95;;;;;;;9.30;100.00;99778.00;4986829;28;20038;-75
2022/09/27 11:03:44;;;;;;;12.77;2.22;;;;;;;9.31;100.00;99769.75;5004728;28;20390;-76
2022/09/27 11:06:39;;;;;;;18.17;2.38;;;;;;;9.51;100.00;99777.06;5003683;28;20050;-76
2022/09/27 11:09:43;;;;;;;30.35;3.83;;;;;;;9.65;100.00;99784.13;4986581;28;20050;-78
2022/09/27 11:12:11;;;;;;;20.92;2.80;;;;;;;9.82;100.00;99788.13;4979764;28;20066;-76
2022/09/27 11:14:37;;;;;;;25.15;2.33;;;;;;;10.07;100.00;99779.47;4980248;28;20030;-76
2022/09/27 11:17:19;;;;;;;14.18;2.50;;;;;;;10.02;100.00;99782.75;5004774;28;20062;-76
2022/09/27 11:19:56;;;;;;;13.55;2.78;;;;;;;10.18;100.00;99776.16;5004241;28;20052;-76
2022/09/27 11:23:15;;;;;;;12.30;2.70;;;;;;;10.33;100.00;99774.16;5007984;28;20069;-75
2022/09/27 11:25:56;;;;;;;15.10;2.63;;;;;;;10.52;100.00;99766.28;4949921;29;20090;-75
2022/09/27 11:28:32;;;;;;;25.20;4.28;;;;;;;10.66;100.00;99765.22;4994839;28;20102;-75
2022/09/27 11:31:25;;;;;;;24.73;2.97;;;;;;;10.90;100.00;99760.22;4985433;28;20026;-77
2022/09/27 11:34:17;;;;;;;22.80;1.83;;;;;;;10.99;98.69;99756.28;5002320;28;20030;-77
2022/09/27 11:36:52;;;;;;;12.50;2.00;;;;;;;11.17;90.24;99758.28;5011191;28;20030;-75
2022/09/27 11:39:49;;;;;;;23.80;2.55;;;;;;;11.33;89.74;99757.00;4991795;28;20061;-76
2022/09/27 11:42:15;;;;;;;13.50;1.60;;;;;;;11.50;89.46;99752.75;5010677;28;20049;-76
2022/09/27 11:45:01;;;;;;;18.65;1.92;;;;;;;11.64;90.50;99754.34;5015295;28;20018;-77
2022/09/27 11:47:40;;;;;;;12.02;2.03;;;;;;;11.65;85.95;99750.59;4989778;28;20081;-75
2022/09/27 11:50:24;;;;;;;13.77;1.60;;;;;;;11.88;81.29;99741.19;5002559;28;20030;-76